Flight Track Log - Related Links

Times and Time Zones

All times are in EDT time to prevent confusion due to time zone crossing. See the SWA1377 flight status page for this flight to view local times or setup timezone preferences in your user account.

Time Position Orientation Groundspeed Altitude Reporting Facility
EDT Latitude Longitude Course Direction KTS MPH feet Rate Location/Type
Sun 07:17:14 AM 29.5222 -98.4592 129° Southeast 155 178 1,700  Level Houston Center
Sun 07:17:50 AM 29.5064 -98.4367 129° Southeast 148 170 3,000 2,227 Climbing Houston Center
Sun 07:18:51 AM 29.4733 -98.3869 127° Southeast 192 221 5,300 1,983 Climbing Houston Center
Sun 07:19:51 AM 29.5000 -98.3250 64° Northeast 264 304 7,000 2,331 Climbing Houston Center
Sun 07:20:52 AM 29.5731 -98.3403 350° North 270 311 10,000 2,479 Climbing Houston Center
Sun 07:21:52 AM 29.6578 -98.3475 356° North 314 361 12,000 2,650 Climbing Houston Center
Sun 07:22:52 AM 29.7514 -98.3575 355° North 339 390 15,300 3,223 Climbing Houston Center
Sun 07:23:53 AM 29.8486 -98.3672 355° North 349 402 18,500 3,074 Climbing Houston Center
Sun 07:24:53 AM 29.9575 -98.3778 355° North 363 418 21,500 2,826 Climbing Houston Center
Sun 07:25:54 AM 30.0628 -98.3883 355° North 378 435 24,200 2,430 Climbing Houston Center
Sun 07:26:54 AM 30.1725 -98.3828 North 403 464 26,400 1,983 Climbing Houston Center
Sun 07:27:55 AM 30.2783 -98.3678 North 415 478 28,200 1,686 Climbing Houston Center
Sun 07:28:55 AM 30.3947 -98.3511 North 432 497 29,800 1,636 Climbing Houston Center
Sun 07:29:56 AM 30.5178 -98.3325 North 440 506 31,500 1,736 Climbing Houston Center
Sun 07:30:56 AM 30.6419 -98.3142 North 442 509 33,300 1,884 Climbing Houston Center
Sun 07:31:57 AM 30.7647 -98.2964 North 440 506 35,300 1,835 Climbing Houston Center
Sun 07:32:57 AM 30.8864 -98.2781 North 435 501 37,000 1,590 Climbing Houston Center
Sun 07:33:54 AM 31.0058 -98.2617 North 428 493 38,400 1,026 Climbing Fort Worth Center
Sun 07:34:54 AM 31.1250 -98.2456 North 428 493 39,000 300 Climbing Fort Worth Center
Sun 07:35:54 AM 31.2461 -98.2272 North 431 496 39,000  Level Fort Worth Center
Sun 07:36:54 AM 31.3631 -98.2114 North 426 490 39,000  Level Fort Worth Center
Sun 07:37:54 AM 31.4678 -98.1856 12° North 426 490 39,000  Level Fort Worth Center
Sun 07:38:54 AM 31.5808 -98.1108 29° Northeast 437 503 39,000  Level Fort Worth Center
Sun 07:39:54 AM 31.6919 -98.0336 31° Northeast 455 524 39,000  Level Fort Worth Center
Sun 07:40:54 AM 31.8031 -97.9536 31° Northeast 465 535 39,000  Level Fort Worth Center
Sun 07:41:54 AM 31.9139 -97.8783 30° Northeast 465 535 39,000  Level Fort Worth Center
Sun 07:42:54 AM 32.0353 -97.7908 31° Northeast 465 535 39,000  Level Fort Worth Center
Sun 07:43:54 AM 32.1442 -97.7128 31° Northeast 455 524 39,000  Level Fort Worth Center
Sun 07:44:54 AM 32.2528 -97.6369 31° Northeast 460 529 39,000  Level Fort Worth Center
Sun 07:45:54 AM 32.3636 -97.5561 32° Northeast 459 528 39,000  Level Fort Worth Center
Sun 07:46:54 AM 32.4639 -97.4872 30° Northeast 459 528 39,000  Level Fort Worth Center
Sun 07:47:54 AM 32.5767 -97.4061 31° Northeast 459 528 39,000  Level Fort Worth Center
Sun 07:48:54 AM 32.6831 -97.3269 32° Northeast 459 528 39,000  Level Fort Worth Center
Sun 07:49:54 AM 32.7914 -97.2478 32° Northeast 454 522 39,000  Level Fort Worth Center
Sun 07:50:54 AM 32.9125 -97.1611 31° Northeast 454 522 39,000  Level Fort Worth Center
Sun 07:51:54 AM 33.0147 -97.0939 29° Northeast 454 522 39,000  Level Fort Worth Center
Sun 07:52:54 AM 33.1394 -97.0067 30° Northeast 462 532 39,000  Level Fort Worth Center
Sun 07:53:54 AM 33.2375 -96.9392 30° Northeast 462 532 39,000  Level Fort Worth Center
Sun 07:54:54 AM 33.3478 -96.8614 30° Northeast 462 532 39,000  Level Fort Worth Center
Sun 07:55:54 AM 33.4600 -96.7836 30° Northeast 462 532 39,000  Level Fort Worth Center
Sun 07:56:54 AM 33.5683 -96.7056 31° Northeast 462 532 39,000  Level Fort Worth Center
Sun 07:57:54 AM 33.6783 -96.6297 30° Northeast 462 532 39,000  Level Fort Worth Center
Sun 07:58:54 AM 33.7864 -96.5514 31° Northeast 462 532 39,000  Level Fort Worth Center
Sun 07:59:54 AM 33.8964 -96.4725 31° Northeast 456 525 39,000  Level Fort Worth Center
Sun 08:00:54 AM 34.0128 -96.3886 31° Northeast 449 517 39,000  Level Fort Worth Center
Sun 08:01:54 AM 34.1039 -96.3225 31° Northeast 444 511 39,000  Level Fort Worth Center
Sun 08:02:54 AM 34.2139 -96.2456 30° Northeast 436 502 39,000  Level Fort Worth Center
Sun 08:03:54 AM 34.3194 -96.1664 32° Northeast 441 507 39,000  Level Fort Worth Center
Sun 08:04:54 AM 34.4314 -96.0892 30° Northeast 446 513 39,000  Level Fort Worth Center
Sun 08:05:54 AM 34.5389 -96.0094 31° Northeast 441 507 39,000  Level Fort Worth Center
Sun 08:06:54 AM 34.6486 -95.9292 31° Northeast 446 513 39,000  Level Fort Worth Center
Sun 08:07:54 AM 34.7561 -95.8517 31° Northeast 446 513 39,000  Level Fort Worth Center
Sun 08:08:54 AM 34.8614 -95.7636 34° Northeast 451 519 39,000  Level Fort Worth Center
Sun 08:11:10 AM 35.0931 -95.5036 43° Northeast 474 545 39,000  Level Memphis Center
Sun 08:12:10 AM 35.1875 -95.3875 45° Northeast 474 545 39,000  Level Memphis Center
Sun 08:13:10 AM 35.2836 -95.2764 43° Northeast 474 545 39,000  Level Memphis Center
Sun 08:14:10 AM 35.3800 -95.1650 43° Northeast 474 545 39,000  Level Memphis Center
Sun 08:15:10 AM 35.4739 -95.0531 44° Northeast 474 545 39,000  Level Memphis Center
Sun 08:16:10 AM 35.5700 -94.9358 45° Northeast 474 545 39,000  Level Memphis Center
Sun 08:17:10 AM 35.6656 -94.8261 43° Northeast 474 545 39,000  Level Memphis Center
Sun 08:18:10 AM 35.7714 -94.7297 36° Northeast 469 540 39,000  Level Memphis Center
Sun 08:19:10 AM 35.8747 -94.6353 37° Northeast 463 533 39,000  Level Memphis Center
Sun 08:20:10 AM 35.9781 -94.5406 37° Northeast 463 533 39,000  Level Memphis Center
Sun 08:21:10 AM 36.0811 -94.4456 37° Northeast 458 527 39,000  Level Memphis Center
Sun 08:22:10 AM 36.1844 -94.3478 37° Northeast 458 527 39,000  Level Memphis Center
Sun 08:23:10 AM 36.2875 -94.2500 37° Northeast 458 527 39,000  Level Memphis Center
Sun 08:24:31 AM 36.4264 -94.1206 37° Northeast 466 536 39,000  Level Kansas City Center
Sun 08:25:32 AM 36.5303 -94.0228 37° Northeast 467 537 39,000  Level Kansas City Center
Sun 08:26:31 AM 36.6342 -93.9253 37° Northeast 468 539 39,000  Level Kansas City Center
Sun 08:27:31 AM 36.7383 -93.8258 37° Northeast 469 540 39,000  Level Kansas City Center
Sun 08:28:34 AM 36.8406 -93.7264 38° Northeast 471 542 39,000  Level Kansas City Center
Sun 08:29:35 AM 36.9322 -93.6403 37° Northeast 468 539 39,000  Level Kansas City Center
Sun 08:30:36 AM 37.0358 -93.5397 38° Northeast 469 540 39,000  Level Kansas City Center
Sun 08:31:37 AM 37.1622 -93.4208 37° Northeast 470 541 39,000  Level Kansas City Center
Sun 08:32:38 AM 37.2653 -93.3225 37° Northeast 466 536 39,000  Level Kansas City Center
Sun 08:33:38 AM 37.3686 -93.2217 38° Northeast 467 537 39,000  Level Kansas City Center
Sun 08:34:39 AM 37.4697 -93.1197 39° Northeast 465 535 39,000  Level Kansas City Center
Sun 08:35:40 AM 37.5731 -93.0214 37° Northeast 462 532 39,000  Level Kansas City Center
Sun 08:36:40 AM 37.6761 -92.9194 38° Northeast 466 536 39,000  Level Kansas City Center
Sun 08:37:42 AM 37.7775 -92.8175 38° Northeast 464 534 39,000  Level Kansas City Center
Sun 08:38:43 AM 37.8806 -92.7128 39° Northeast 471 542 39,000  Level Kansas City Center
Sun 08:39:43 AM 37.9858 -92.6100 38° Northeast 476 548 39,000  Level Kansas City Center
Sun 08:40:42 AM 38.0875 -92.5081 38° Northeast 472 543 39,000  Level Kansas City Center
Sun 08:41:45 AM 38.1994 -92.3967 38° Northeast 477 549 39,000  Level Kansas City Center
Sun 08:42:46 AM 38.3056 -92.2903 38° Northeast 478 550 39,000  Level Kansas City Center
Sun 08:43:46 AM 38.4100 -92.1858 38° Northeast 475 547 39,000  Level Kansas City Center
Sun 08:44:45 AM 38.5139 -92.0797 39° Northeast 475 547 39,000  Level Kansas City Center
Sun 08:45:46 AM 38.6164 -91.9744 39° Northeast 472 543 39,000  Level Kansas City Center
Sun 08:46:49 AM 38.7203 -91.8703 38° Northeast 472 543 39,000  Level Kansas City Center
Sun 08:47:51 AM 38.8228 -91.7647 39° Northeast 471 542 39,000  Level Kansas City Center
Sun 08:48:51 AM 38.9142 -91.6706 39° Northeast 472 543 39,000  Level Kansas City Center
Sun 08:49:52 AM 39.0172 -91.5647 39° Northeast 473 544 39,000  Level Kansas City Center
Sun 08:50:51 AM 39.1194 -91.4589 39° Northeast 471 542 39,000 -197 Level Kansas City Center
Sun 08:51:54 AM 39.2225 -91.3533 38° Northeast 471 542 38,600 -624 Descending Kansas City Center
Sun 08:52:56 AM 39.3258 -91.2478 38° Northeast 473 544 37,700 -1,033 Descending Kansas City Center
Sun 08:53:56 AM 39.4478 -91.1189 39° Northeast 471 542 36,500 -1,041 Descending Kansas City Center
Sun 08:54:57 AM 39.5481 -91.0125 39° Northeast 467 537 35,600 -738 Descending Kansas City Center
Sun 08:55:58 AM 39.6489 -90.9067 39° Northeast 466 536 35,000 -295 Descending Kansas City Center
Sun 08:56:59 AM 39.7489 -90.8000 39° Northeast 466 536 35,000 -550 Level Kansas City Center
Sun 08:57:58 AM 39.8494 -90.6928 39° Northeast 458 527 33,900 -1,082 Descending Kansas City Center
Sun 08:59:01 AM 39.9403 -90.5947 40° Northeast 433 498 32,800 -1,016 Descending Kansas City Center
Sun 09:00:02 AM 40.0314 -90.4978 39° Northeast 426 490 31,800 -893 Descending Kansas City Center
Sun 09:01:02 AM 40.1233 -90.4008 39° Northeast 425 489 31,000 -632 Descending Kansas City Center
Sun 09:01:18 AM 40.1408 -90.3806 42° Northeast 427 491 31,000  Level Chicago Center
Sun 09:02:20 AM 40.2325 -90.2828 39° Northeast 425 489 31,000 -439 Level Chicago Center
Sun 09:03:21 AM 40.3408 -90.1642 40° Northeast 422 486 30,100 -934 Descending Chicago Center
Sun 09:04:22 AM 40.4322 -90.0650 40° Northeast 426 490 29,100 -1,180 Descending Chicago Center
Sun 09:05:23 AM 40.5161 -89.9725 40° Northeast 417 480 27,700 -1,707 Descending Chicago Center
Sun 09:06:25 AM 40.6019 -89.8786 40° Northeast 403 464 25,600 -1,854 Descending Chicago Center
Sun 09:07:26 AM 40.6814 -89.7858 42° Northeast 388 447 23,900 -1,672 Descending Chicago Center
Sun 09:08:27 AM 40.7325 -89.6658 61° Northeast 379 436 22,200 -1,512 Descending Chicago Center
Sun 09:09:29 AM 40.8089 -89.5397 51° Northeast 376 433 20,800 -1,122 Descending Chicago Center
Sun 09:10:30 AM 40.8750 -89.4339 50° Northeast 375 432 19,900 -984 Descending Chicago Center
Sun 09:11:31 AM 40.9394 -89.3294 51° Northeast 369 425 18,800 -1,024 Descending Chicago Center
Sun 09:12:33 AM 41.0014 -89.2272 51° Northeast 360 414 17,800 -1,024 Descending Chicago Center
Sun 09:13:34 AM 41.0606 -89.1275 52° Northeast 348 400 16,700 -1,463 Descending Chicago Center
Sun 09:14:36 AM 41.1211 -89.0303 50° Northeast 344 396 14,800 -1,805 Descending Chicago Center
Sun 09:15:37 AM 41.1794 -88.9308 52° Northeast 343 395 13,000 -1,770 Descending Chicago Center
Sun 09:16:38 AM 41.2367 -88.8364 51° Northeast 337 388 11,200 -1,561 Descending Chicago Center
Sun 09:17:40 AM 41.3011 -88.7283 52° Northeast 318 366 9,800 -1,366 Descending Chicago Center
Sun 09:18:41 AM 41.3511 -88.6467 51° Northeast 299 344 8,400 -1,317 Descending Chicago Center
Sun 09:19:43 AM 41.4000 -88.5642 52° Northeast 290 334 7,100 -1,171 Descending Chicago Center
Sun 09:20:44 AM 41.4475 -88.4850 51° Northeast 282 325 6,000 -836 Descending Chicago Center
Sun 09:21:45 AM 41.4936 -88.4072 52° Northeast 274 315 5,400 -829 Descending Chicago Center
Sun 09:22:47 AM 41.5397 -88.3300 51° Northeast 269 310 4,300 -683 Descending Chicago Center
Sun 09:23:48 AM 41.5850 -88.2592 49° Northeast 260 299 4,000 -146 Descending Chicago Center
Sun 09:24:50 AM 41.6303 -88.1925 48° Northeast 250 288 4,000 -49 Level Chicago Center
Sun 09:25:51 AM 41.6761 -88.1258 47° Northeast 244 281 3,900 -780 Descending Chicago Center
Sun 09:26:53 AM 41.7219 -88.0558 49° Northeast 246 283 2,400 -732 Descending Chicago Center
Sun 09:27:54 AM 41.7708 -87.9828 48° Northeast 229 264 2,400 -98 Level Chicago Center
Sun 09:28:56 AM 41.8014 -87.9364 49° Northeast 188 216 2,200 -195 Descending Chicago Center
Sun 09:29:57 AM 41.8317 -87.8906 48° Northeast 173 199 2,000 -55 Descending Chicago Center
Sun 09:30:45 AM 41.8333 -87.8333 88° East 148 170 2,100 -222 Climbing Chicago TRACON
Sun 09:31:45 AM 41.8167 -87.8000 124° Southeast 114 131 1,600 -550 Descending Chicago TRACON
Sun 09:32:45 AM 41.8000 -87.7667 124° Southeast 122 140 1,000 -600 Descending Chicago TRACON

Login

Don't have an account? Register now (free) for customized features, flight alerts, and more!